createdAt,value
2019-01-05T00:02:54.902Z,5.10
2019-01-05T00:08:27.782Z,6.53
2019-01-05T00:13:45.371Z,4.80
2019-01-05T00:19:16.200Z,5.47
2019-01-05T00:24:46.293Z,6.07
2019-01-05T00:30:22.657Z,4.23
2019-01-05T00:36:22.083Z,7.90
2019-01-05T00:41:45.311Z,4.10
2019-01-05T00:47:10.344Z,4.63
2019-01-05T00:52:33.342Z,4.97
2019-01-05T00:58:10.412Z,3.53
2019-01-05T01:03:34.268Z,4.77
2019-01-05T01:08:58.128Z,4.40
2019-01-05T01:14:33.471Z,3.20
2019-01-05T01:19:52.713Z,3.70
2019-01-05T01:25:13.989Z,3.60
2019-01-05T01:30:36.209Z,3.83
2019-01-05T01:36:00.367Z,5.03
2019-01-05T01:41:44.432Z,3.83
2019-01-05T01:47:09.222Z,5.33
2019-01-05T01:52:35.574Z,3.63
2019-01-05T01:58:03.935Z,5.03
2019-01-05T02:03:33.387Z,5.60
2019-01-05T02:09:22.560Z,5.20
2019-01-05T02:15:10.039Z,4.03
2019-01-05T02:21:14.955Z,5.17
2019-01-05T02:27:10.728Z,8.10
2019-01-05T02:32:54.852Z,2.80
2019-01-05T02:38:34.943Z,2.60
2019-01-05T02:44:30.581Z,2.90
2019-01-05T02:50:17.856Z,2.00
2019-01-05T02:56:39.333Z,1.70
2019-01-05T03:02:55.588Z,2.47
2019-01-05T03:08:54.016Z,3.77
2019-01-05T03:15:00.592Z,1.70
2019-01-05T03:21:07.696Z,1.27
2019-01-05T03:27:08.440Z,1.32
2019-01-05T03:33:17.840Z,1.10
2019-01-05T03:39:17.526Z,1.20
2019-01-05T03:45:19.264Z,1.27
2019-01-05T03:51:40.622Z,1.03
2019-01-05T03:57:24.487Z,1.33
2019-01-05T04:03:32.740Z,1.20
2019-01-05T04:09:29.489Z,1.73
2019-01-05T04:15:48.579Z,1.40
2019-01-05T04:21:49.901Z,2.33
2019-01-05T04:28:20.416Z,3.13
2019-01-05T04:34:15.621Z,2.07
2019-01-05T04:40:16.496Z,1.50
2019-01-05T04:46:21.873Z,1.62
2019-01-05T04:52:35.865Z,1.63
2019-01-05T04:58:26.023Z,1.50
2019-01-05T05:04:48.407Z,1.27
2019-01-05T05:10:38.883Z,1.90
2019-01-05T05:16:41.888Z,1.73
2019-01-05T05:22:41.571Z,1.40
2019-01-05T05:28:45.195Z,2.70
2019-01-05T05:35:03.490Z,1.47
2019-01-05T05:41:01.973Z,2.67
2019-01-05T05:47:08.635Z,1.63
2019-01-05T05:53:11.260Z,1.90
2019-01-05T05:59:28.987Z,4.63
2019-01-05T06:05:27.553Z,2.33
2019-01-05T06:11:31.596Z,2.43
2019-01-05T06:17:22.550Z,4.13
2019-01-05T06:23:31.753Z,3.30
2019-01-05T06:29:30.347Z,5.77
2019-01-05T06:35:41.287Z,8.27
2019-01-05T06:41:33.772Z,4.93
2019-01-05T06:47:46.394Z,7.87
2019-01-05T06:54:11.288Z,6.50
2019-01-05T07:00:41.442Z,5.72
2019-01-05T07:07:01.800Z,10.20
2019-01-05T07:12:51.849Z,10.53
2019-01-05T07:19:14.394Z,11.50
2019-01-05T07:25:31.498Z,14.17
2019-01-05T07:31:32.335Z,12.90
2019-01-05T07:37:40.647Z,8.63
2019-01-05T07:43:49.727Z,12.47
2019-01-05T07:49:58.915Z,13.90
2019-01-05T07:56:14.874Z,12.77
2019-01-05T08:02:10.119Z,21.43
2019-01-05T08:08:28.671Z,19.52
2019-01-05T08:14:34.223Z,15.83
2019-01-05T08:20:42.288Z,14.97
2019-01-05T08:26:54.604Z,14.03
2019-01-05T08:33:20.555Z,18.73
2019-01-05T08:39:32.459Z,13.67
2019-01-05T08:45:36.694Z,11.47
2019-01-05T08:51:44.100Z,12.73
2019-01-05T08:57:52.708Z,17.07
2019-01-05T09:04:03.461Z,11.33
2019-01-05T09:10:13.281Z,21.23
2019-01-05T09:16:14.444Z,18.17
2019-01-05T09:22:39.022Z,13.25
2019-01-05T09:28:27.306Z,15.97
2019-01-05T09:34:26.268Z,19.97
2019-01-05T09:40:15.162Z,17.90
2019-01-05T09:46:14.882Z,17.83
2019-01-05T09:52:19.061Z,16.53
2019-01-05T09:58:31.672Z,25.90
2019-01-05T10:04:42.893Z,21.13
2019-01-05T10:10:45.500Z,12.83
2019-01-05T10:16:39.441Z,15.40
2019-01-05T10:22:51.972Z,16.37
2019-01-05T10:28:49.068Z,13.63
2019-01-05T10:34:48.400Z,13.40
2019-01-05T10:40:47.535Z,16.83
2019-01-05T10:46:53.344Z,12.93
2019-01-05T10:52:47.389Z,11.20
2019-01-05T10:58:36.599Z,12.13
2019-01-05T11:04:30.848Z,13.03
2019-01-05T11:10:35.838Z,15.63
2019-01-05T11:16:34.385Z,11.10
2019-01-05T11:22:24.809Z,13.97
2019-01-05T11:28:37.475Z,10.03
2019-01-05T11:34:50.335Z,12.33
2019-01-05T11:40:48.610Z,10.60
2019-01-05T11:46:42.548Z,15.27
2019-01-05T11:52:47.510Z,8.53
2019-01-05T11:58:50.838Z,13.43
2019-01-05T12:05:04.457Z,10.23
2019-01-05T12:11:17.529Z,15.40
2019-01-05T12:17:32.306Z,11.07
2019-01-05T12:23:36.668Z,9.00
2019-01-05T12:29:45.794Z,10.67
2019-01-05T12:35:36.467Z,8.47
2019-01-05T12:41:39.763Z,4.83
2019-01-05T12:47:38.772Z,8.87
2019-01-05T12:53:28.680Z,12.87
2019-01-05T12:59:31.954Z,9.77
2019-01-05T13:05:34.904Z,7.33
2019-01-05T13:12:05.598Z,13.80
2019-01-05T13:18:19.342Z,11.60
2019-01-05T13:24:26.272Z,9.00
2019-01-05T13:30:34.112Z,10.00
2019-01-05T13:36:47.374Z,6.57
2019-01-05T13:42:43.452Z,10.90
2019-01-05T13:48:54.103Z,10.80
2019-01-05T13:54:25.731Z,12.10
2019-01-05T13:59:58.407Z,9.30
2019-01-05T14:05:21.521Z,10.43
2019-01-05T14:10:54.623Z,8.80
2019-01-05T14:16:27.251Z,14.40
2019-01-05T14:22:06.536Z,7.20
2019-01-05T14:27:36.347Z,12.60
2019-01-05T14:33:07.007Z,6.97
2019-01-05T14:38:35.469Z,7.22
2019-01-05T14:43:51.361Z,4.70
2019-01-05T14:49:14.025Z,4.80
2019-01-05T14:54:36.734Z,4.63
2019-01-05T15:00:03.474Z,7.00
2019-01-05T15:05:32.751Z,7.30
2019-01-05T15:10:55.372Z,4.47
2019-01-05T15:16:37.513Z,7.13
2019-01-05T15:22:04.307Z,6.53
2019-01-05T15:27:30.930Z,6.87
2019-01-05T15:33:04.172Z,4.60
2019-01-05T15:38:32.412Z,6.67
2019-01-05T15:43:54.944Z,7.77
2019-01-05T15:49:19.423Z,8.63
2019-01-05T15:54:42.008Z,7.20
2019-01-05T15:59:57.393Z,7.03
2019-01-05T16:05:21.184Z,7.03
2019-01-05T16:10:45.487Z,8.20
2019-01-05T16:16:18.128Z,6.03
2019-01-05T16:21:40.854Z,7.33
2019-01-05T16:27:14.879Z,10.87
2019-01-05T16:32:37.264Z,7.87
2019-01-05T16:37:54.384Z,10.10
2019-01-05T16:43:17.120Z,7.13
2019-01-05T16:48:35.924Z,6.42
2019-01-05T16:53:58.526Z,5.17
2019-01-05T16:59:19.576Z,6.60
2019-01-05T17:04:51.252Z,6.10
2019-01-05T17:10:22.134Z,9.87
2019-01-05T17:15:45.389Z,8.73
2019-01-05T17:21:21.483Z,7.67
2019-01-05T17:26:44.231Z,8.50
2019-01-05T17:32:17.659Z,5.87
2019-01-05T17:37:53.882Z,7.93
2019-01-05T17:43:17.736Z,6.57
2019-01-05T17:48:57.021Z,6.47
2019-01-05T17:54:19.317Z,5.43
2019-01-05T17:59:43.258Z,5.17
2019-01-05T18:05:05.952Z,4.53
2019-01-05T18:10:29.346Z,4.87
2019-01-05T18:15:52.924Z,2.43
2019-01-05T18:21:09.662Z,2.90
2019-01-05T18:26:36.390Z,2.10
2019-01-05T18:31:59.187Z,1.67
2019-01-05T18:37:27.790Z,3.57
2019-01-05T18:42:52.791Z,3.03
2019-01-05T18:48:15.935Z,2.05
2019-01-05T18:53:50.731Z,1.65
2019-01-05T18:59:14.520Z,2.43
2019-01-05T19:04:38.362Z,2.77
2019-01-05T19:10:00.021Z,2.57
2019-01-05T19:15:27.404Z,3.63
2019-01-05T19:21:00.532Z,3.77
2019-01-05T19:26:24.590Z,1.97
2019-01-05T19:31:55.054Z,1.30
2019-01-05T19:37:11.583Z,2.63
2019-01-05T19:42:38.451Z,2.47
2019-01-05T19:48:17.692Z,2.47
2019-01-05T19:53:44.020Z,3.23
2019-01-05T19:59:24.287Z,3.50
2019-01-05T20:04:46.873Z,3.23
2019-01-05T20:10:10.779Z,2.77
2019-01-05T20:15:43.947Z,2.50
2019-01-05T20:21:23.002Z,1.70
2019-01-05T20:26:52.773Z,4.10
2019-01-05T20:32:15.559Z,2.03
2019-01-05T20:37:43.531Z,2.50
2019-01-05T20:43:07.367Z,2.47
2019-01-05T20:48:30.073Z,2.13
2019-01-05T20:53:52.513Z,1.93
2019-01-05T20:59:22.375Z,4.53
2019-01-05T21:04:41.341Z,2.67
2019-01-05T21:09:57.015Z,2.17
2019-01-05T21:15:19.776Z,2.57
2019-01-05T21:20:49.522Z,4.43
2019-01-05T21:26:24.492Z,3.70
2019-01-05T21:31:43.845Z,2.80
2019-01-05T21:37:06.596Z,4.07
2019-01-05T21:42:39.721Z,3.93
2019-01-05T21:47:57.183Z,3.53
2019-01-05T21:53:20.984Z,4.80
2019-01-05T21:58:44.832Z,3.23
2019-01-05T22:04:08.005Z,5.07
2019-01-05T22:09:31.803Z,4.60
2019-01-05T22:15:04.637Z,5.83
2019-01-05T22:20:31.356Z,4.47
2019-01-05T22:26:00.974Z,6.90
2019-01-05T22:31:30.116Z,6.33
2019-01-05T22:36:52.630Z,5.00
2019-01-05T22:42:25.666Z,8.20
2019-01-05T22:48:04.574Z,10.90
2019-01-05T22:53:43.904Z,5.70
2019-01-05T22:59:06.516Z,4.13
2019-01-05T23:04:30.852Z,3.30
2019-01-05T23:09:53.944Z,3.93
2019-01-05T23:15:20.933Z,3.13
2019-01-05T23:20:44.734Z,6.57
2019-01-05T23:26:09.790Z,6.53
2019-01-05T23:31:28.557Z,6.65
2019-01-05T23:36:51.000Z,7.00
2019-01-05T23:42:13.574Z,3.17
2019-01-05T23:47:37.375Z,4.92
2019-01-05T23:52:59.977Z,5.37
2019-01-05T23:58:42.139Z,3.95
